sensor_id;sensor_type;location;lat;lon;timestamp;P1;durP1;ratioP1;P2;durP2;ratioP2
42110;SDS011;27766;52.174;5.456;2024-03-06T00:00:38;46.03;;;30.45;;
42110;SDS011;27766;52.174;5.456;2024-03-06T00:03:05;41.60;;;28.58;;
42110;SDS011;27766;52.174;5.456;2024-03-06T00:05:33;42.50;;;29.90;;
42110;SDS011;27766;52.174;5.456;2024-03-06T00:08:01;40.72;;;30.92;;
42110;SDS011;27766;52.174;5.456;2024-03-06T00:10:30;40.10;;;29.80;;
42110;SDS011;27766;52.174;5.456;2024-03-06T00:12:58;43.33;;;30.35;;
42110;SDS011;27766;52.174;5.456;2024-03-06T00:15:26;40.53;;;29.13;;
42110;SDS011;27766;52.174;5.456;2024-03-06T00:17:54;41.92;;;29.02;;
42110;SDS011;27766;52.174;5.456;2024-03-06T00:20:21;40.33;;;29.55;;
42110;SDS011;27766;52.174;5.456;2024-03-06T00:22:52;45.38;;;30.58;;
42110;SDS011;27766;52.174;5.456;2024-03-06T00:25:19;44.67;;;31.50;;
42110;SDS011;27766;52.174;5.456;2024-03-06T00:27:47;39.70;;;28.27;;
42110;SDS011;27766;52.174;5.456;2024-03-06T00:30:14;43.55;;;30.25;;
42110;SDS011;27766;52.174;5.456;2024-03-06T00:32:43;40.50;;;31.17;;
42110;SDS011;27766;52.174;5.456;2024-03-06T00:35:11;42.03;;;31.33;;
42110;SDS011;27766;52.174;5.456;2024-03-06T00:37:39;43.53;;;29.65;;
42110;SDS011;27766;52.174;5.456;2024-03-06T00:40:06;41.70;;;29.83;;
42110;SDS011;27766;52.174;5.456;2024-03-06T00:42:34;46.25;;;29.17;;
42110;SDS011;27766;52.174;5.456;2024-03-06T00:45:02;42.70;;;29.80;;
42110;SDS011;27766;52.174;5.456;2024-03-06T00:47:30;42.90;;;30.30;;
42110;SDS011;27766;52.174;5.456;2024-03-06T00:49:57;39.10;;;30.63;;
42110;SDS011;27766;52.174;5.456;2024-03-06T00:52:24;44.30;;;31.40;;
42110;SDS011;27766;52.174;5.456;2024-03-06T00:54:52;39.65;;;29.38;;
42110;SDS011;27766;52.174;5.456;2024-03-06T00:57:19;38.92;;;30.05;;
42110;SDS011;27766;52.174;5.456;2024-03-06T00:59:47;43.55;;;32.10;;
42110;SDS011;27766;52.174;5.456;2024-03-06T01:02:14;43.60;;;30.67;;
42110;SDS011;27766;52.174;5.456;2024-03-06T01:04:43;40.40;;;30.20;;
42110;SDS011;27766;52.174;5.456;2024-03-06T01:07:10;44.35;;;30.67;;
42110;SDS011;27766;52.174;5.456;2024-03-06T01:09:38;39.42;;;30.55;;
42110;SDS011;27766;52.174;5.456;2024-03-06T01:12:05;43.50;;;33.92;;
42110;SDS011;27766;52.174;5.456;2024-03-06T01:14:32;40.47;;;29.75;;
42110;SDS011;27766;52.174;5.456;2024-03-06T01:17:03;47.65;;;32.45;;
42110;SDS011;27766;52.174;5.456;2024-03-06T01:19:30;46.38;;;31.77;;
42110;SDS011;27766;52.174;5.456;2024-03-06T01:21:57;39.33;;;30.10;;
42110;SDS011;27766;52.174;5.456;2024-03-06T01:24:24;44.60;;;31.00;;
42110;SDS011;27766;52.174;5.456;2024-03-06T01:26:52;47.72;;;31.45;;
42110;SDS011;27766;52.174;5.456;2024-03-06T01:29:19;39.67;;;28.67;;
42110;SDS011;27766;52.174;5.456;2024-03-06T01:31:47;42.08;;;31.15;;
42110;SDS011;27766;52.174;5.456;2024-03-06T01:34:14;45.78;;;31.45;;
42110;SDS011;27766;52.174;5.456;2024-03-06T01:36:41;40.25;;;30.02;;
42110;SDS011;27766;52.174;5.456;2024-03-06T01:39:09;48.47;;;32.50;;
42110;SDS011;27766;52.174;5.456;2024-03-06T01:41:36;45.65;;;30.15;;
42110;SDS011;27766;52.174;5.456;2024-03-06T01:44:04;43.70;;;30.60;;
42110;SDS011;27766;52.174;5.456;2024-03-06T01:46:31;41.63;;;31.30;;
42110;SDS011;27766;52.174;5.456;2024-03-06T01:48:58;41.17;;;31.90;;
42110;SDS011;27766;52.174;5.456;2024-03-06T01:51:30;39.92;;;30.60;;
42110;SDS011;27766;52.174;5.456;2024-03-06T01:53:59;48.08;;;31.77;;
42110;SDS011;27766;52.174;5.456;2024-03-06T01:56:27;40.08;;;30.58;;
42110;SDS011;27766;52.174;5.456;2024-03-06T01:58:55;43.92;;;29.35;;
42110;SDS011;27766;52.174;5.456;2024-03-06T02:01:24;40.38;;;29.80;;
42110;SDS011;27766;52.174;5.456;2024-03-06T02:03:52;45.72;;;31.33;;
42110;SDS011;27766;52.174;5.456;2024-03-06T02:06:19;44.58;;;31.05;;
42110;SDS011;27766;52.174;5.456;2024-03-06T02:08:48;44.55;;;32.10;;
42110;SDS011;27766;52.174;5.456;2024-03-06T02:11:15;50.53;;;32.88;;
42110;SDS011;27766;52.174;5.456;2024-03-06T02:13:43;43.72;;;32.05;;
42110;SDS011;27766;52.174;5.456;2024-03-06T02:16:11;46.05;;;30.77;;
42110;SDS011;27766;52.174;5.456;2024-03-06T02:18:49;39.33;;;30.58;;
42110;SDS011;27766;52.174;5.456;2024-03-06T02:21:18;45.90;;;31.17;;
42110;SDS011;27766;52.174;5.456;2024-03-06T02:23:51;47.78;;;30.05;;
42110;SDS011;27766;52.174;5.456;2024-03-06T02:26:18;48.17;;;31.33;;
42110;SDS011;27766;52.174;5.456;2024-03-06T02:28:50;39.03;;;30.50;;
42110;SDS011;27766;52.174;5.456;2024-03-06T02:31:20;46.38;;;30.77;;
42110;SDS011;27766;52.174;5.456;2024-03-06T02:33:48;44.58;;;31.17;;
42110;SDS011;27766;52.174;5.456;2024-03-06T02:36:17;42.55;;;29.73;;
42110;SDS011;27766;52.174;5.456;2024-03-06T02:38:45;41.03;;;30.58;;
42110;SDS011;27766;52.174;5.456;2024-03-06T02:41:13;42.40;;;30.55;;
42110;SDS011;27766;52.174;5.456;2024-03-06T02:43:43;44.30;;;30.98;;
42110;SDS011;27766;52.174;5.456;2024-03-06T02:46:10;44.30;;;29.60;;
42110;SDS011;27766;52.174;5.456;2024-03-06T02:48:37;42.33;;;30.65;;
42110;SDS011;27766;52.174;5.456;2024-03-06T02:51:04;42.83;;;29.05;;
42110;SDS011;27766;52.174;5.456;2024-03-06T02:53:31;54.15;;;29.75;;
42110;SDS011;27766;52.174;5.456;2024-03-06T02:55:59;40.83;;;28.50;;
42110;SDS011;27766;52.174;5.456;2024-03-06T02:58:26;42.13;;;29.85;;
42110;SDS011;27766;52.174;5.456;2024-03-06T03:00:57;37.53;;;28.42;;
42110;SDS011;27766;52.174;5.456;2024-03-06T03:03:24;42.50;;;30.05;;
42110;SDS011;27766;52.174;5.456;2024-03-06T03:05:52;42.92;;;30.17;;
42110;SDS011;27766;52.174;5.456;2024-03-06T03:08:19;42.45;;;29.08;;
42110;SDS011;27766;52.174;5.456;2024-03-06T03:10:47;49.30;;;31.25;;
42110;SDS011;27766;52.174;5.456;2024-03-06T03:13:14;39.65;;;30.73;;
42110;SDS011;27766;52.174;5.456;2024-03-06T03:15:42;46.58;;;29.58;;
42110;SDS011;27766;52.174;5.456;2024-03-06T03:18:09;40.47;;;28.88;;
42110;SDS011;27766;52.174;5.456;2024-03-06T03:20:36;38.00;;;28.20;;
42110;SDS011;27766;52.174;5.456;2024-03-06T03:23:04;47.25;;;29.08;;
42110;SDS011;27766;52.174;5.456;2024-03-06T03:25:33;42.15;;;28.55;;
42110;SDS011;27766;52.174;5.456;2024-03-06T03:28:00;40.08;;;29.40;;
42110;SDS011;27766;52.174;5.456;2024-03-06T03:30:27;44.83;;;29.95;;
42110;SDS011;27766;52.174;5.456;2024-03-06T03:32:55;39.50;;;28.10;;
42110;SDS011;27766;52.174;5.456;2024-03-06T03:35:22;49.42;;;29.52;;
42110;SDS011;27766;52.174;5.456;2024-03-06T03:37:52;40.72;;;30.35;;
42110;SDS011;27766;52.174;5.456;2024-03-06T03:40:19;40.30;;;28.52;;
42110;SDS011;27766;52.174;5.456;2024-03-06T03:42:47;36.67;;;27.80;;
42110;SDS011;27766;52.174;5.456;2024-03-06T03:45:15;44.58;;;28.90;;
42110;SDS011;27766;52.174;5.456;2024-03-06T03:47:42;41.38;;;28.42;;
42110;SDS011;27766;52.174;5.456;2024-03-06T03:50:09;41.35;;;27.17;;
42110;SDS011;27766;52.174;5.456;2024-03-06T03:52:37;37.40;;;27.60;;
42110;SDS011;27766;52.174;5.456;2024-03-06T03:55:09;41.88;;;28.50;;
42110;SDS011;27766;52.174;5.456;2024-03-06T03:57:36;42.13;;;30.10;;
42110;SDS011;27766;52.174;5.456;2024-03-06T04:00:04;42.92;;;29.45;;
42110;SDS011;27766;52.174;5.456;2024-03-06T04:02:38;47.67;;;30.20;;
42110;SDS011;27766;52.174;5.456;2024-03-06T04:05:06;41.78;;;29.70;;
42110;SDS011;27766;52.174;5.456;2024-03-06T04:07:33;40.92;;;27.80;;
42110;SDS011;27766;52.174;5.456;2024-03-06T04:10:01;33.83;;;27.48;;
42110;SDS011;27766;52.174;5.456;2024-03-06T04:12:28;33.85;;;27.55;;
42110;SDS011;27766;52.174;5.456;2024-03-06T04:14:56;40.75;;;29.00;;
42110;SDS011;27766;52.174;5.456;2024-03-06T04:17:23;42.03;;;28.70;;
42110;SDS011;27766;52.174;5.456;2024-03-06T04:19:52;37.22;;;27.60;;
42110;SDS011;27766;52.174;5.456;2024-03-06T04:22:20;41.97;;;27.42;;
42110;SDS011;27766;52.174;5.456;2024-03-06T04:24:47;40.90;;;27.73;;
42110;SDS011;27766;52.174;5.456;2024-03-06T04:27:14;37.53;;;26.65;;
42110;SDS011;27766;52.174;5.456;2024-03-06T04:29:43;37.33;;;25.65;;
42110;SDS011;27766;52.174;5.456;2024-03-06T04:32:10;36.47;;;27.23;;
42110;SDS011;27766;52.174;5.456;2024-03-06T04:34:37;37.78;;;27.52;;
42110;SDS011;27766;52.174;5.456;2024-03-06T04:37:05;33.58;;;26.52;;
42110;SDS011;27766;52.174;5.456;2024-03-06T04:39:32;39.40;;;27.23;;
42110;SDS011;27766;52.174;5.456;2024-03-06T04:41:59;41.03;;;26.10;;
42110;SDS011;27766;52.174;5.456;2024-03-06T04:44:27;39.97;;;27.73;;
42110;SDS011;27766;52.174;5.456;2024-03-06T04:46:55;36.10;;;26.75;;
42110;SDS011;27766;52.174;5.456;2024-03-06T04:49:23;43.08;;;28.45;;
42110;SDS011;27766;52.174;5.456;2024-03-06T04:51:50;38.17;;;27.02;;
42110;SDS011;27766;52.174;5.456;2024-03-06T04:54:17;36.75;;;25.95;;
42110;SDS011;27766;52.174;5.456;2024-03-06T04:56:44;37.60;;;27.30;;
42110;SDS011;27766;52.174;5.456;2024-03-06T04:59:12;37.65;;;26.73;;
42110;SDS011;27766;52.174;5.456;2024-03-06T05:01:39;40.70;;;27.95;;
42110;SDS011;27766;52.174;5.456;2024-03-06T05:04:06;41.97;;;27.38;;
42110;SDS011;27766;52.174;5.456;2024-03-06T05:06:51;34.65;;;26.38;;
42110;SDS011;27766;52.174;5.456;2024-03-06T05:09:35;36.40;;;26.95;;
42110;SDS011;27766;52.174;5.456;2024-03-06T05:12:20;36.47;;;26.77;;
42110;SDS011;27766;52.174;5.456;2024-03-06T05:15:04;38.25;;;26.55;;
42110;SDS011;27766;52.174;5.456;2024-03-06T05:17:50;32.70;;;25.13;;
42110;SDS011;27766;52.174;5.456;2024-03-06T05:20:35;39.70;;;27.10;;
42110;SDS011;27766;52.174;5.456;2024-03-06T05:23:19;33.65;;;25.42;;
42110;SDS011;27766;52.174;5.456;2024-03-06T05:26:04;36.55;;;27.58;;
42110;SDS011;27766;52.174;5.456;2024-03-06T05:28:49;48.08;;;27.65;;
42110;SDS011;27766;52.174;5.456;2024-03-06T05:31:34;39.97;;;26.30;;
42110;SDS011;27766;52.174;5.456;2024-03-06T05:34:19;61.97;;;25.50;;
42110;SDS011;27766;52.174;5.456;2024-03-06T05:37:04;39.45;;;25.63;;
42110;SDS011;27766;52.174;5.456;2024-03-06T05:39:49;42.10;;;25.27;;
42110;SDS011;27766;52.174;5.456;2024-03-06T05:42:34;38.42;;;25.15;;
42110;SDS011;27766;52.174;5.456;2024-03-06T05:45:19;33.05;;;25.38;;
42110;SDS011;27766;52.174;5.456;2024-03-06T05:48:04;37.92;;;26.23;;
42110;SDS011;27766;52.174;5.456;2024-03-06T05:50:49;35.10;;;24.58;;
42110;SDS011;27766;52.174;5.456;2024-03-06T05:53:38;33.70;;;23.17;;
42110;SDS011;27766;52.174;5.456;2024-03-06T05:56:23;35.70;;;23.08;;
42110;SDS011;27766;52.174;5.456;2024-03-06T05:59:08;36.47;;;27.60;;
42110;SDS011;27766;52.174;5.456;2024-03-06T06:01:35;42.15;;;24.90;;
42110;SDS011;27766;52.174;5.456;2024-03-06T06:04:02;46.78;;;25.15;;
42110;SDS011;27766;52.174;5.456;2024-03-06T06:06:34;33.05;;;23.75;;
42110;SDS011;27766;52.174;5.456;2024-03-06T06:09:01;39.83;;;23.98;;
42110;SDS011;27766;52.174;5.456;2024-03-06T06:11:33;48.63;;;23.38;;
42110;SDS011;27766;52.174;5.456;2024-03-06T06:14:00;73.72;;;24.55;;
42110;SDS011;27766;52.174;5.456;2024-03-06T06:16:34;46.92;;;24.08;;
42110;SDS011;27766;52.174;5.456;2024-03-06T06:19:01;74.55;;;23.80;;
42110;SDS011;27766;52.174;5.456;2024-03-06T06:21:29;47.70;;;22.70;;
42110;SDS011;27766;52.174;5.456;2024-03-06T06:23:57;73.50;;;24.00;;
42110;SDS011;27766;52.174;5.456;2024-03-06T06:26:24;36.03;;;21.42;;
42110;SDS011;27766;52.174;5.456;2024-03-06T06:28:51;61.60;;;22.17;;
42110;SDS011;27766;52.174;5.456;2024-03-06T06:31:19;56.05;;;22.58;;
42110;SDS011;27766;52.174;5.456;2024-03-06T06:33:46;27.48;;;22.48;;
42110;SDS011;27766;52.174;5.456;2024-03-06T06:36:18;42.50;;;22.27;;
42110;SDS011;27766;52.174;5.456;2024-03-06T06:38:47;33.65;;;22.55;;
42110;SDS011;27766;52.174;5.456;2024-03-06T06:41:16;30.73;;;23.58;;
42110;SDS011;27766;52.174;5.456;2024-03-06T06:43:45;32.15;;;23.23;;
42110;SDS011;27766;52.174;5.456;2024-03-06T06:46:13;39.97;;;24.20;;
42110;SDS011;27766;52.174;5.456;2024-03-06T06:48:40;47.40;;;24.13;;
42110;SDS011;27766;52.174;5.456;2024-03-06T06:51:07;37.20;;;24.05;;
42110;SDS011;27766;52.174;5.456;2024-03-06T06:53:35;38.88;;;24.70;;
42110;SDS011;27766;52.174;5.456;2024-03-06T06:56:02;32.85;;;23.05;;
42110;SDS011;27766;52.174;5.456;2024-03-06T06:58:30;36.95;;;25.23;;
42110;SDS011;27766;52.174;5.456;2024-03-06T07:00:57;38.72;;;23.90;;
42110;SDS011;27766;52.174;5.456;2024-03-06T07:03:25;36.08;;;24.55;;
42110;SDS011;27766;52.174;5.456;2024-03-06T07:05:56;38.28;;;25.23;;
42110;SDS011;27766;52.174;5.456;2024-03-06T07:08:24;40.53;;;26.38;;
42110;SDS011;27766;52.174;5.456;2024-03-06T07:10:51;36.65;;;25.80;;
42110;SDS011;27766;52.174;5.456;2024-03-06T07:13:21;36.55;;;26.35;;
42110;SDS011;27766;52.174;5.456;2024-03-06T07:15:49;38.78;;;26.58;;
42110;SDS011;27766;52.174;5.456;2024-03-06T07:18:17;34.00;;;24.95;;
42110;SDS011;27766;52.174;5.456;2024-03-06T07:20:45;35.42;;;25.65;;
42110;SDS011;27766;52.174;5.456;2024-03-06T07:23:12;40.38;;;27.05;;
42110;SDS011;27766;52.174;5.456;2024-03-06T07:25:40;38.63;;;27.65;;
42110;SDS011;27766;52.174;5.456;2024-03-06T07:28:07;34.75;;;25.52;;
42110;SDS011;27766;52.174;5.456;2024-03-06T07:30:34;37.90;;;26.27;;
42110;SDS011;27766;52.174;5.456;2024-03-06T07:33:02;35.42;;;25.45;;
42110;SDS011;27766;52.174;5.456;2024-03-06T07:35:29;31.52;;;23.48;;
42110;SDS011;27766;52.174;5.456;2024-03-06T07:37:56;31.60;;;23.73;;
42110;SDS011;27766;52.174;5.456;2024-03-06T07:40:24;34.15;;;24.15;;
42110;SDS011;27766;52.174;5.456;2024-03-06T07:42:51;33.70;;;22.70;;
42110;SDS011;27766;52.174;5.456;2024-03-06T07:45:19;48.45;;;22.83;;
42110;SDS011;27766;52.174;5.456;2024-03-06T07:47:47;31.48;;;20.83;;
42110;SDS011;27766;52.174;5.456;2024-03-06T07:50:16;33.30;;;23.83;;
42110;SDS011;27766;52.174;5.456;2024-03-06T07:52:48;35.20;;;22.65;;
42110;SDS011;27766;52.174;5.456;2024-03-06T07:55:16;35.78;;;23.20;;
42110;SDS011;27766;52.174;5.456;2024-03-06T07:57:46;35.05;;;23.75;;
42110;SDS011;27766;52.174;5.456;2024-03-06T08:00:13;42.17;;;24.75;;
42110;SDS011;27766;52.174;5.456;2024-03-06T08:02:41;40.67;;;25.23;;
42110;SDS011;27766;52.174;5.456;2024-03-06T08:05:10;48.05;;;25.23;;
42110;SDS011;27766;52.174;5.456;2024-03-06T08:07:41;49.85;;;25.70;;
42110;SDS011;27766;52.174;5.456;2024-03-06T08:10:09;48.72;;;25.67;;
42110;SDS011;27766;52.174;5.456;2024-03-06T08:12:40;52.75;;;28.05;;
42110;SDS011;27766;52.174;5.456;2024-03-06T08:15:10;60.55;;;29.15;;
42110;SDS011;27766;52.174;5.456;2024-03-06T08:17:39;46.50;;;28.27;;
42110;SDS011;27766;52.174;5.456;2024-03-06T08:20:09;70.45;;;29.20;;
42110;SDS011;27766;52.174;5.456;2024-03-06T08:22:38;54.67;;;29.35;;
42110;SDS011;27766;52.174;5.456;2024-03-06T08:25:10;43.05;;;29.60;;
42110;SDS011;27766;52.174;5.456;2024-03-06T08:27:39;55.30;;;31.00;;
42110;SDS011;27766;52.174;5.456;2024-03-06T08:30:07;65.28;;;30.02;;
42110;SDS011;27766;52.174;5.456;2024-03-06T08:32:36;50.55;;;31.05;;
42110;SDS011;27766;52.174;5.456;2024-03-06T08:35:05;55.35;;;29.98;;
42110;SDS011;27766;52.174;5.456;2024-03-06T08:40:08;52.90;;;29.88;;
42110;SDS011;27766;52.174;5.456;2024-03-06T08:42:42;61.60;;;31.75;;
42110;SDS011;27766;52.174;5.456;2024-03-06T08:45:10;75.57;;;32.05;;
42110;SDS011;27766;52.174;5.456;2024-03-06T08:47:38;66.55;;;30.95;;
42110;SDS011;27766;52.174;5.456;2024-03-06T08:50:06;59.38;;;29.80;;
42110;SDS011;27766;52.174;5.456;2024-03-06T08:52:35;54.50;;;29.00;;
42110;SDS011;27766;52.174;5.456;2024-03-06T08:55:03;59.78;;;30.25;;
42110;SDS011;27766;52.174;5.456;2024-03-06T08:57:31;48.05;;;30.60;;
42110;SDS011;27766;52.174;5.456;2024-03-06T08:59:59;62.35;;;33.17;;
42110;SDS011;27766;52.174;5.456;2024-03-06T09:02:26;50.33;;;31.17;;
42110;SDS011;27766;52.174;5.456;2024-03-06T09:04:53;47.13;;;31.90;;
42110;SDS011;27766;52.174;5.456;2024-03-06T09:07:21;54.67;;;33.25;;
42110;SDS011;27766;52.174;5.456;2024-03-06T09:09:51;51.60;;;34.13;;
42110;SDS011;27766;52.174;5.456;2024-03-06T09:12:19;54.83;;;33.78;;
42110;SDS011;27766;52.174;5.456;2024-03-06T09:14:47;55.08;;;34.00;;
42110;SDS011;27766;52.174;5.456;2024-03-06T09:17:15;51.78;;;32.40;;
42110;SDS011;27766;52.174;5.456;2024-03-06T09:19:42;47.53;;;32.53;;
42110;SDS011;27766;52.174;5.456;2024-03-06T09:22:29;47.95;;;30.75;;
42110;SDS011;27766;52.174;5.456;2024-03-06T09:24:57;48.53;;;31.90;;
42110;SDS011;27766;52.174;5.456;2024-03-06T09:27:24;46.30;;;32.17;;
42110;SDS011;27766;52.174;5.456;2024-03-06T09:29:51;47.22;;;31.63;;
42110;SDS011;27766;52.174;5.456;2024-03-06T09:32:19;48.60;;;30.75;;
42110;SDS011;27766;52.174;5.456;2024-03-06T09:34:49;48.85;;;31.25;;
42110;SDS011;27766;52.174;5.456;2024-03-06T09:37:17;48.10;;;31.15;;
42110;SDS011;27766;52.174;5.456;2024-03-06T09:39:46;59.10;;;33.25;;
42110;SDS011;27766;52.174;5.456;2024-03-06T09:42:15;53.42;;;34.03;;
42110;SDS011;27766;52.174;5.456;2024-03-06T09:44:43;46.35;;;30.90;;
42110;SDS011;27766;52.174;5.456;2024-03-06T09:47:12;51.13;;;31.38;;
42110;SDS011;27766;52.174;5.456;2024-03-06T09:49:41;47.30;;;31.83;;
42110;SDS011;27766;52.174;5.456;2024-03-06T09:52:10;53.78;;;31.63;;
42110;SDS011;27766;52.174;5.456;2024-03-06T09:54:37;49.63;;;31.30;;
42110;SDS011;27766;52.174;5.456;2024-03-06T09:57:06;56.33;;;31.95;;
42110;SDS011;27766;52.174;5.456;2024-03-06T09:59:33;48.22;;;31.70;;
42110;SDS011;27766;52.174;5.456;2024-03-06T10:02:01;49.55;;;31.83;;
42110;SDS011;27766;52.174;5.456;2024-03-06T10:04:45;47.60;;;31.23;;
42110;SDS011;27766;52.174;5.456;2024-03-06T10:07:13;40.95;;;29.40;;
42110;SDS011;27766;52.174;5.456;2024-03-06T10:09:41;53.25;;;30.95;;
42110;SDS011;27766;52.174;5.456;2024-03-06T10:12:08;42.38;;;29.45;;
42110;SDS011;27766;52.174;5.456;2024-03-06T10:14:39;50.10;;;30.50;;
42110;SDS011;27766;52.174;5.456;2024-03-06T10:17:20;46.85;;;30.33;;
42110;SDS011;27766;52.174;5.456;2024-03-06T10:19:54;46.83;;;31.95;;
42110;SDS011;27766;52.174;5.456;2024-03-06T10:22:22;50.72;;;29.73;;
42110;SDS011;27766;52.174;5.456;2024-03-06T10:24:54;41.20;;;29.80;;
42110;SDS011;27766;52.174;5.456;2024-03-06T10:27:23;41.50;;;28.98;;
42110;SDS011;27766;52.174;5.456;2024-03-06T10:30:03;47.95;;;32.63;;
42110;SDS011;27766;52.174;5.456;2024-03-06T10:32:32;48.97;;;29.80;;
42110;SDS011;27766;52.174;5.456;2024-03-06T10:35:00;45.33;;;31.52;;
42110;SDS011;27766;52.174;5.456;2024-03-06T10:37:28;44.28;;;30.70;;
42110;SDS011;27766;52.174;5.456;2024-03-06T10:39:57;49.50;;;28.40;;
42110;SDS011;27766;52.174;5.456;2024-03-06T10:42:26;43.83;;;29.77;;
42110;SDS011;27766;52.174;5.456;2024-03-06T10:44:56;47.28;;;30.08;;
42110;SDS011;27766;52.174;5.456;2024-03-06T10:47:26;41.15;;;28.30;;
42110;SDS011;27766;52.174;5.456;2024-03-06T10:49:55;40.72;;;26.48;;
42110;SDS011;27766;52.174;5.456;2024-03-06T10:52:27;38.13;;;26.95;;
42110;SDS011;27766;52.174;5.456;2024-03-06T10:54:55;41.42;;;28.80;;
42110;SDS011;27766;52.174;5.456;2024-03-06T10:57:25;46.95;;;29.80;;
42110;SDS011;27766;52.174;5.456;2024-03-06T10:59:54;40.65;;;28.55;;
42110;SDS011;27766;52.174;5.456;2024-03-06T11:02:22;43.88;;;28.17;;
42110;SDS011;27766;52.174;5.456;2024-03-06T11:04:51;45.47;;;29.83;;
42110;SDS011;27766;52.174;5.456;2024-03-06T11:07:20;34.88;;;26.00;;
42110;SDS011;27766;52.174;5.456;2024-03-06T11:09:48;32.03;;;24.67;;
42110;SDS011;27766;52.174;5.456;2024-03-06T11:12:50;39.95;;;27.50;;
42110;SDS011;27766;52.174;5.456;2024-03-06T11:15:15;37.45;;;26.67;;
42110;SDS011;27766;52.174;5.456;2024-03-06T11:17:47;36.83;;;25.90;;
42110;SDS011;27766;52.174;5.456;2024-03-06T11:20:17;40.20;;;25.58;;
42110;SDS011;27766;52.174;5.456;2024-03-06T11:33:20;34.35;;;25.85;;
42110;SDS011;27766;52.174;5.456;2024-03-06T11:38:46;36.70;;;25.13;;
42110;SDS011;27766;52.174;5.456;2024-03-06T11:41:15;38.00;;;23.73;;
42110;SDS011;27766;52.174;5.456;2024-03-06T11:43:43;35.30;;;23.80;;
42110;SDS011;27766;52.174;5.456;2024-03-06T11:46:10;33.63;;;23.75;;
42110;SDS011;27766;52.174;5.456;2024-03-06T11:48:38;30.08;;;21.23;;
42110;SDS011;27766;52.174;5.456;2024-03-06T11:51:06;27.70;;;21.25;;
42110;SDS011;27766;52.174;5.456;2024-03-06T11:53:34;25.67;;;19.55;;
42110;SDS011;27766;52.174;5.456;2024-03-06T11:56:05;24.08;;;19.52;;
42110;SDS011;27766;52.174;5.456;2024-03-06T11:58:34;29.33;;;19.45;;
42110;SDS011;27766;52.174;5.456;2024-03-06T12:01:01;26.63;;;18.17;;
42110;SDS011;27766;52.174;5.456;2024-03-06T12:03:29;24.08;;;19.55;;
42110;SDS011;27766;52.174;5.456;2024-03-06T12:05:57;29.58;;;20.13;;
42110;SDS011;27766;52.174;5.456;2024-03-06T12:08:25;28.88;;;19.10;;
42110;SDS011;27766;52.174;5.456;2024-03-06T12:10:53;28.75;;;19.52;;
42110;SDS011;27766;52.174;5.456;2024-03-06T12:13:22;29.10;;;18.38;;
42110;SDS011;27766;52.174;5.456;2024-03-06T12:15:51;21.25;;;16.90;;
42110;SDS011;27766;52.174;5.456;2024-03-06T12:18:19;22.90;;;15.73;;
42110;SDS011;27766;52.174;5.456;2024-03-06T12:20:50;24.63;;;16.50;;
42110;SDS011;27766;52.174;5.456;2024-03-06T12:23:21;20.02;;;15.38;;
42110;SDS011;27766;52.174;5.456;2024-03-06T12:26:04;22.90;;;15.40;;
42110;SDS011;27766;52.174;5.456;2024-03-06T12:28:39;20.95;;;15.18;;
42110;SDS011;27766;52.174;5.456;2024-03-06T12:31:06;21.98;;;15.68;;
42110;SDS011;27766;52.174;5.456;2024-03-06T12:33:34;18.85;;;13.77;;
42110;SDS011;27766;52.174;5.456;2024-03-06T12:36:03;17.77;;;13.27;;
42110;SDS011;27766;52.174;5.456;2024-03-06T12:38:32;18.98;;;13.70;;
42110;SDS011;27766;52.174;5.456;2024-03-06T12:41:00;17.23;;;14.15;;
42110;SDS011;27766;52.174;5.456;2024-03-06T12:43:28;19.08;;;13.43;;
42110;SDS011;27766;52.174;5.456;2024-03-06T12:45:56;19.33;;;15.05;;
42110;SDS011;27766;52.174;5.456;2024-03-06T12:48:25;24.23;;;14.18;;
42110;SDS011;27766;52.174;5.456;2024-03-06T12:50:55;16.08;;;11.75;;
42110;SDS011;27766;52.174;5.456;2024-03-06T12:53:23;13.13;;;9.60;;
42110;SDS011;27766;52.174;5.456;2024-03-06T12:55:50;14.55;;;9.75;;
42110;SDS011;27766;52.174;5.456;2024-03-06T12:58:17;13.85;;;10.38;;
42110;SDS011;27766;52.174;5.456;2024-03-06T13:00:45;11.38;;;9.32;;
42110;SDS011;27766;52.174;5.456;2024-03-06T13:03:13;13.90;;;10.00;;
42110;SDS011;27766;52.174;5.456;2024-03-06T13:05:41;14.05;;;10.32;;
42110;SDS011;27766;52.174;5.456;2024-03-06T13:08:08;12.23;;;9.77;;
42110;SDS011;27766;52.174;5.456;2024-03-06T13:10:35;16.50;;;9.07;;
42110;SDS011;27766;52.174;5.456;2024-03-06T13:13:03;16.20;;;10.93;;
42110;SDS011;27766;52.174;5.456;2024-03-06T13:15:30;15.63;;;8.95;;
42110;SDS011;27766;52.174;5.456;2024-03-06T13:17:57;14.73;;;9.48;;
42110;SDS011;27766;52.174;5.456;2024-03-06T13:20:24;12.98;;;8.32;;
42110;SDS011;27766;52.174;5.456;2024-03-06T13:22:52;12.85;;;7.50;;
42110;SDS011;27766;52.174;5.456;2024-03-06T13:25:19;10.15;;;7.65;;
42110;SDS011;27766;52.174;5.456;2024-03-06T13:27:47;9.63;;;6.60;;
42110;SDS011;27766;52.174;5.456;2024-03-06T13:30:16;7.15;;;5.68;;
42110;SDS011;27766;52.174;5.456;2024-03-06T13:32:43;6.75;;;5.47;;
42110;SDS011;27766;52.174;5.456;2024-03-06T13:35:12;9.43;;;6.57;;
42110;SDS011;27766;52.174;5.456;2024-03-06T13:37:40;10.73;;;6.45;;
42110;SDS011;27766;52.174;5.456;2024-03-06T13:40:08;8.73;;;7.13;;
42110;SDS011;27766;52.174;5.456;2024-03-06T13:42:37;12.65;;;7.18;;
42110;SDS011;27766;52.174;5.456;2024-03-06T13:45:04;6.93;;;5.65;;
42110;SDS011;27766;52.174;5.456;2024-03-06T13:47:32;7.13;;;6.03;;
42110;SDS011;27766;52.174;5.456;2024-03-06T13:50:00;8.30;;;5.82;;
42110;SDS011;27766;52.174;5.456;2024-03-06T13:52:27;10.10;;;6.03;;
42110;SDS011;27766;52.174;5.456;2024-03-06T13:54:54;12.00;;;7.10;;
42110;SDS011;27766;52.174;5.456;2024-03-06T13:57:22;11.55;;;7.45;;
42110;SDS011;27766;52.174;5.456;2024-03-06T13:59:49;10.00;;;7.13;;
42110;SDS011;27766;52.174;5.456;2024-03-06T14:02:17;10.18;;;7.25;;
42110;SDS011;27766;52.174;5.456;2024-03-06T14:04:45;10.73;;;6.95;;
42110;SDS011;27766;52.174;5.456;2024-03-06T14:07:12;9.20;;;6.45;;
42110;SDS011;27766;52.174;5.456;2024-03-06T14:09:40;11.02;;;5.85;;
42110;SDS011;27766;52.174;5.456;2024-03-06T14:12:08;6.88;;;5.75;;
42110;SDS011;27766;52.174;5.456;2024-03-06T14:14:35;9.70;;;6.95;;
42110;SDS011;27766;52.174;5.456;2024-03-06T14:17:02;10.18;;;6.82;;
42110;SDS011;27766;52.174;5.456;2024-03-06T14:19:31;12.95;;;7.60;;
42110;SDS011;27766;52.174;5.456;2024-03-06T14:21:58;10.70;;;6.97;;
42110;SDS011;27766;52.174;5.456;2024-03-06T14:24:30;10.45;;;7.70;;
42110;SDS011;27766;52.174;5.456;2024-03-06T14:26:57;9.88;;;7.85;;
42110;SDS011;27766;52.174;5.456;2024-03-06T14:29:25;11.00;;;7.78;;
42110;SDS011;27766;52.174;5.456;2024-03-06T14:31:55;8.35;;;6.60;;
42110;SDS011;27766;52.174;5.456;2024-03-06T14:34:23;12.18;;;7.18;;
42110;SDS011;27766;52.174;5.456;2024-03-06T14:36:51;8.80;;;6.20;;
42110;SDS011;27766;52.174;5.456;2024-03-06T14:39:19;7.30;;;5.80;;
42110;SDS011;27766;52.174;5.456;2024-03-06T14:41:52;6.50;;;4.97;;
42110;SDS011;27766;52.174;5.456;2024-03-06T14:44:20;9.07;;;4.53;;
42110;SDS011;27766;52.174;5.456;2024-03-06T14:46:48;7.18;;;5.55;;
42110;SDS011;27766;52.174;5.456;2024-03-06T14:49:17;7.78;;;5.68;;
42110;SDS011;27766;52.174;5.456;2024-03-06T14:51:46;7.70;;;5.70;;